createdAt,value
2023-03-18T00:02:30.611Z,2.70
2023-03-18T00:05:03.965Z,3.03
2023-03-18T00:07:37.770Z,2.47
2023-03-18T00:10:12.899Z,2.80
2023-03-18T00:12:46.405Z,2.77
2023-03-18T00:15:20.000Z,2.60
2023-03-18T00:17:52.781Z,2.90
2023-03-18T00:20:39.033Z,3.00
2023-03-18T00:23:12.473Z,2.43
2023-03-18T00:25:47.981Z,2.35
2023-03-18T00:28:22.539Z,2.97
2023-03-18T00:30:57.593Z,3.00
2023-03-18T00:33:30.760Z,2.70
2023-03-18T00:36:06.949Z,2.50
2023-03-18T00:38:41.264Z,3.03
2023-03-18T00:41:16.262Z,2.57
2023-03-18T00:43:53.083Z,2.40
2023-03-18T00:46:26.775Z,2.67
2023-03-18T00:49:01.438Z,2.35
2023-03-18T00:51:35.796Z,2.50
2023-03-18T00:54:10.338Z,2.92
2023-03-18T00:56:43.602Z,2.40
2023-03-18T00:59:16.999Z,2.50
2023-03-18T01:01:50.249Z,2.45
2023-03-18T01:04:23.580Z,2.57
2023-03-18T01:06:56.152Z,2.57
2023-03-18T01:12:00.906Z,2.40
2023-03-18T01:14:34.295Z,3.05
2023-03-18T01:17:08.307Z,2.37
2023-03-18T01:19:41.695Z,2.37
2023-03-18T01:22:15.091Z,2.83
2023-03-18T01:24:52.377Z,2.40
2023-03-18T01:27:28.642Z,2.63
2023-03-18T01:30:04.109Z,3.30
2023-03-18T01:32:38.384Z,2.90
2023-03-18T01:35:12.657Z,2.90
2023-03-18T01:37:48.768Z,2.70
2023-03-18T01:40:22.574Z,2.87
2023-03-18T01:42:58.433Z,2.60
2023-03-18T01:45:33.903Z,2.75
2023-03-18T01:48:07.871Z,2.85
2023-03-18T01:50:40.857Z,2.60
2023-03-18T01:53:16.542Z,3.40
2023-03-18T01:55:51.125Z,3.20
2023-03-18T01:58:26.485Z,2.60
2023-03-18T02:01:02.736Z,2.60
2023-03-18T02:03:37.122Z,2.90
2023-03-18T02:06:10.440Z,2.80
2023-03-18T02:08:44.291Z,3.07
2023-03-18T02:11:17.642Z,2.83
2023-03-18T02:13:51.242Z,3.00
2023-03-18T02:16:26.109Z,2.80
2023-03-18T02:19:01.112Z,3.23
2023-03-18T02:21:39.627Z,3.30
2023-03-18T02:24:17.931Z,3.70
2023-03-18T02:26:53.528Z,3.00
2023-03-18T02:29:33.129Z,3.30
2023-03-18T02:32:11.287Z,3.10
2023-03-18T02:34:44.826Z,3.20
2023-03-18T02:37:18.015Z,2.97
2023-03-18T02:39:51.607Z,3.23
2023-03-18T02:42:31.629Z,3.03
2023-03-18T02:45:05.417Z,3.77
2023-03-18T02:48:01.686Z,3.00
2023-03-18T02:50:35.288Z,3.35
2023-03-18T02:53:09.092Z,3.07
2023-03-18T02:55:41.876Z,3.30
2023-03-18T02:58:15.063Z,3.50
2023-03-18T03:00:48.052Z,2.75
2023-03-18T03:03:21.574Z,2.85
2023-03-18T03:05:55.660Z,3.00
2023-03-18T03:08:29.673Z,3.35
2023-03-18T03:11:02.654Z,3.43
2023-03-18T03:13:37.528Z,3.10
2023-03-18T03:16:11.519Z,3.00
2023-03-18T03:18:44.677Z,2.90
2023-03-18T03:21:18.091Z,2.50
2023-03-18T03:23:51.877Z,2.25
2023-03-18T03:26:25.081Z,3.33
2023-03-18T03:28:58.243Z,2.90
2023-03-18T03:31:32.145Z,3.13
2023-03-18T03:34:05.865Z,3.20
2023-03-18T03:36:38.189Z,3.10
2023-03-18T03:39:11.016Z,3.55
2023-03-18T03:41:44.210Z,2.95
2023-03-18T03:44:22.329Z,2.80
2023-03-18T03:46:55.704Z,3.20
2023-03-18T03:49:28.698Z,2.70
2023-03-18T03:52:01.878Z,2.70
2023-03-18T03:54:35.068Z,3.20
2023-03-18T03:57:08.268Z,2.95
2023-03-18T03:59:41.457Z,2.80
2023-03-18T04:02:37.810Z,2.75
2023-03-18T04:05:13.196Z,3.00
2023-03-18T04:07:47.644Z,2.65
2023-03-18T04:10:21.856Z,3.20
2023-03-18T04:12:55.245Z,3.40
2023-03-18T04:15:29.059Z,2.97
2023-03-18T04:18:07.295Z,3.10
2023-03-18T04:20:40.629Z,3.33
2023-03-18T04:23:34.424Z,3.10
2023-03-18T04:26:07.417Z,3.45
2023-03-18T04:28:40.805Z,2.80
2023-03-18T04:31:15.278Z,2.70
2023-03-18T04:33:48.626Z,2.90
2023-03-18T04:36:21.810Z,2.75
2023-03-18T04:38:54.997Z,3.90
2023-03-18T04:41:28.187Z,5.50
2023-03-18T04:44:01.990Z,5.00
2023-03-18T04:46:42.783Z,3.90
2023-03-18T04:49:15.466Z,4.10
2023-03-18T04:51:47.931Z,3.75
2023-03-18T04:54:29.493Z,4.00
2023-03-18T04:57:06.170Z,3.95
2023-03-18T04:59:41.015Z,4.10
2023-03-18T05:02:15.729Z,3.30
2023-03-18T05:04:49.422Z,3.10
2023-03-18T05:07:22.403Z,3.50
2023-03-18T05:10:02.762Z,3.50
2023-03-18T05:12:36.982Z,2.70
2023-03-18T05:15:13.450Z,2.80
2023-03-18T05:17:50.530Z,2.75
2023-03-18T05:20:24.534Z,4.15
2023-03-18T05:22:57.522Z,3.43
2023-03-18T05:25:49.671Z,3.50
2023-03-18T05:28:23.018Z,3.20
2023-03-18T05:31:16.870Z,3.00
2023-03-18T05:33:50.624Z,3.40
2023-03-18T05:36:25.045Z,3.75
2023-03-18T05:39:04.245Z,3.85
2023-03-18T05:41:37.564Z,3.17
2023-03-18T05:44:13.215Z,3.20
2023-03-18T05:46:47.223Z,3.30
2023-03-18T05:49:31.445Z,3.65
2023-03-18T05:52:30.464Z,3.40
2023-03-18T05:55:07.339Z,5.17
2023-03-18T05:57:43.409Z,3.70
2023-03-18T06:00:19.068Z,4.37
2023-03-18T06:02:54.305Z,4.10
2023-03-18T06:05:29.112Z,4.60
2023-03-18T06:08:03.022Z,4.70
2023-03-18T06:10:36.110Z,3.70
2023-03-18T06:13:09.913Z,4.70
2023-03-18T06:15:43.521Z,5.10
2023-03-18T06:18:17.736Z,4.85
2023-03-18T06:20:52.413Z,5.50
2023-03-18T06:23:26.765Z,5.55
2023-03-18T06:26:02.005Z,5.30
2023-03-18T06:28:39.494Z,5.30
2023-03-18T06:31:17.257Z,6.03
2023-03-18T06:33:50.398Z,7.50
2023-03-18T06:36:24.387Z,4.83
2023-03-18T06:38:59.862Z,5.77
2023-03-18T06:41:33.438Z,5.43
2023-03-18T06:44:38.574Z,5.13
2023-03-18T06:47:24.463Z,5.80
2023-03-18T06:50:02.155Z,4.10
2023-03-18T06:52:38.830Z,4.58
2023-03-18T06:55:16.941Z,5.30
2023-03-18T06:57:51.550Z,5.50
2023-03-18T07:00:29.759Z,6.50
2023-03-18T07:03:03.051Z,4.90
2023-03-18T07:05:35.828Z,3.70
2023-03-18T07:08:10.863Z,3.15
2023-03-18T07:10:43.853Z,3.50
2023-03-18T07:13:21.833Z,4.83
2023-03-18T07:15:56.754Z,3.87
2023-03-18T07:18:29.769Z,3.87
2023-03-18T07:21:03.771Z,4.20
2023-03-18T07:23:37.170Z,3.87
2023-03-18T07:26:10.361Z,3.77
2023-03-18T07:28:44.161Z,3.40
2023-03-18T07:31:17.586Z,3.85
2023-03-18T07:33:51.157Z,4.17
2023-03-18T07:36:23.936Z,3.62
2023-03-18T07:38:57.124Z,4.00
2023-03-18T07:41:30.313Z,3.67
2023-03-18T07:44:03.927Z,3.20
2023-03-18T07:46:38.557Z,3.62
2023-03-18T07:49:11.628Z,3.25
2023-03-18T07:51:45.959Z,3.70
2023-03-18T07:54:20.222Z,3.30
2023-03-18T07:56:53.858Z,3.08
2023-03-18T07:59:26.594Z,3.47
2023-03-18T08:01:59.517Z,4.43
2023-03-18T08:04:32.864Z,3.67
2023-03-18T08:07:05.195Z,3.42
2023-03-18T08:09:38.714Z,3.12
2023-03-18T08:12:13.796Z,3.85
2023-03-18T08:14:48.542Z,3.85
2023-03-18T08:17:22.960Z,3.30
2023-03-18T08:19:56.762Z,3.05
2023-03-18T08:22:29.955Z,3.35
2023-03-18T08:25:03.759Z,5.28
2023-03-18T08:27:36.952Z,3.75
2023-03-18T08:30:12.714Z,4.20
2023-03-18T08:32:46.695Z,4.35
2023-03-18T08:35:21.340Z,4.08
2023-03-18T08:37:55.246Z,3.50
2023-03-18T08:40:29.664Z,4.77
2023-03-18T08:43:03.185Z,3.50
2023-03-18T08:45:37.492Z,3.60
2023-03-18T08:48:11.299Z,3.77
2023-03-18T08:50:45.129Z,3.47
2023-03-18T08:53:20.315Z,4.03
2023-03-18T08:55:54.201Z,3.50
2023-03-18T08:58:29.158Z,3.10
2023-03-18T09:01:05.564Z,3.93
2023-03-18T09:03:39.562Z,3.60
2023-03-18T09:06:13.305Z,4.13
2023-03-18T09:08:47.532Z,4.30
2023-03-18T09:11:21.529Z,3.90
2023-03-18T09:13:55.778Z,3.70
2023-03-18T09:16:30.255Z,3.10
2023-03-18T09:19:03.839Z,3.10
2023-03-18T09:21:38.553Z,4.27
2023-03-18T09:24:12.935Z,3.10
2023-03-18T09:26:46.774Z,3.10
2023-03-18T09:29:21.157Z,3.30
2023-03-18T09:31:57.262Z,3.43
2023-03-18T09:34:31.264Z,3.43
2023-03-18T09:37:05.045Z,3.27
2023-03-18T09:39:37.915Z,3.37
2023-03-18T09:42:29.986Z,3.43
2023-03-18T09:45:11.629Z,3.45
2023-03-18T09:47:59.663Z,3.55
2023-03-18T09:50:42.953Z,3.90
2023-03-18T09:53:23.346Z,3.90
2023-03-18T09:56:02.275Z,3.20
2023-03-18T09:58:49.599Z,4.10
2023-03-18T10:01:26.074Z,3.87
2023-03-18T10:04:03.979Z,3.53
2023-03-18T10:06:43.511Z,3.33
2023-03-18T10:09:27.366Z,3.27
2023-03-18T10:12:08.963Z,3.57
2023-03-18T10:14:47.196Z,3.58
2023-03-18T10:17:26.917Z,3.80
2023-03-18T10:20:04.624Z,3.73
2023-03-18T10:22:57.726Z,3.60
2023-03-18T10:25:40.120Z,3.60
2023-03-18T10:28:49.779Z,3.13
2023-03-18T10:31:34.610Z,3.57
2023-03-18T10:34:14.392Z,3.80
2023-03-18T10:36:57.513Z,3.33
2023-03-18T10:39:33.832Z,4.07
2023-03-18T10:42:26.601Z,3.73
2023-03-18T10:45:10.196Z,4.00
2023-03-18T10:47:52.360Z,3.17
2023-03-18T10:50:31.940Z,4.00
2023-03-18T10:53:16.148Z,3.67
2023-03-18T10:56:00.018Z,3.33
2023-03-18T10:58:34.626Z,3.70
2023-03-18T11:01:10.864Z,3.20
2023-03-18T11:03:50.829Z,3.50
2023-03-18T11:06:31.373Z,3.40
2023-03-18T11:09:10.476Z,3.43
2023-03-18T11:11:46.351Z,3.40
2023-03-18T11:14:23.822Z,3.80
2023-03-18T11:17:02.916Z,3.00
2023-03-18T11:19:40.013Z,3.23
2023-03-18T11:22:23.237Z,3.33
2023-03-18T11:25:16.903Z,3.10
2023-03-18T11:27:52.450Z,2.50
2023-03-18T11:30:36.093Z,2.90
2023-03-18T11:33:17.708Z,3.30
2023-03-18T11:35:55.423Z,2.90
2023-03-18T11:38:31.318Z,2.77
2023-03-18T11:41:15.387Z,3.60
2023-03-18T11:44:01.060Z,3.20
2023-03-18T11:46:38.946Z,3.53
2023-03-18T11:49:18.137Z,3.50
2023-03-18T11:51:56.738Z,3.83
2023-03-18T11:55:01.436Z,3.90
2023-03-18T11:57:46.239Z,3.60
2023-03-18T12:00:30.450Z,3.63
2023-03-18T12:03:35.659Z,3.80
2023-03-18T12:06:18.189Z,3.43
2023-03-18T12:09:03.453Z,3.50
2023-03-18T12:11:57.416Z,3.40
2023-03-18T12:14:39.383Z,3.80
2023-03-18T12:17:30.191Z,3.12
2023-03-18T12:20:36.605Z,3.63
2023-03-18T12:23:22.237Z,3.77
2023-03-18T12:26:14.292Z,3.87
2023-03-18T12:29:32.312Z,3.10
2023-03-18T12:32:21.283Z,20.57
2023-03-18T12:35:29.335Z,4.80
2023-03-18T12:38:29.504Z,3.83
2023-03-18T12:41:08.795Z,3.40
2023-03-18T12:43:56.159Z,6.30
2023-03-18T12:46:36.270Z,5.50
2023-03-18T12:49:16.566Z,4.90
2023-03-18T12:51:58.052Z,6.20
2023-03-18T12:54:35.489Z,9.65
2023-03-18T12:57:17.748Z,45.90
2023-03-18T13:02:45.949Z,7.13
2023-03-18T13:05:29.533Z,4.60
2023-03-18T13:08:26.151Z,4.43
2023-03-18T13:11:06.245Z,3.80
2023-03-18T13:13:45.787Z,3.33
2023-03-18T13:16:21.261Z,4.30
2023-03-18T13:18:57.798Z,10.33
2023-03-18T13:21:36.836Z,13.40
2023-03-18T13:24:39.413Z,10.40
2023-03-18T13:27:37.800Z,6.50
2023-03-18T13:30:24.028Z,4.30
2023-03-18T13:33:33.323Z,12.17
2023-03-18T13:36:30.099Z,5.65
2023-03-18T13:39:25.101Z,4.83
2023-03-18T13:42:31.128Z,4.47
2023-03-18T13:45:22.598Z,4.87
2023-03-18T13:48:02.313Z,3.50
2023-03-18T13:50:39.880Z,3.50
2023-03-18T13:53:26.557Z,3.97
2023-03-18T13:56:26.301Z,3.90
2023-03-18T13:59:06.256Z,3.20
2023-03-18T14:01:51.704Z,2.90
2023-03-18T14:04:33.711Z,3.40
2023-03-18T14:07:18.594Z,3.37
2023-03-18T14:09:55.913Z,3.37
2023-03-18T14:12:45.374Z,3.67
2023-03-18T14:15:49.766Z,4.00
2023-03-18T14:18:29.389Z,3.63
2023-03-18T14:21:08.946Z,4.00
2023-03-18T14:23:45.580Z,3.03
2023-03-18T14:26:26.759Z,3.90
2023-03-18T14:29:24.467Z,3.57
2023-03-18T14:32:08.320Z,3.00
2023-03-18T14:34:58.811Z,3.57
2023-03-18T14:37:34.484Z,4.43
2023-03-18T14:40:16.538Z,4.03
2023-03-18T14:42:56.826Z,4.47
2023-03-18T14:45:33.504Z,4.43
2023-03-18T14:48:13.803Z,4.60
2023-03-18T14:50:50.950Z,5.30
2023-03-18T14:53:30.547Z,7.70
2023-03-18T14:56:06.277Z,6.00
2023-03-18T14:58:39.795Z,4.60
2023-03-18T15:01:14.522Z,4.63
2023-03-18T15:03:51.603Z,4.87
2023-03-18T15:06:27.172Z,5.00
2023-03-18T15:09:06.286Z,5.07
2023-03-18T15:11:44.477Z,4.93
2023-03-18T15:14:19.753Z,5.83
2023-03-18T15:16:54.000Z,5.58
2023-03-18T15:19:27.225Z,4.97
2023-03-18T15:22:00.701Z,4.87
2023-03-18T15:24:33.407Z,4.75
2023-03-18T15:27:08.687Z,4.95
2023-03-18T15:29:46.047Z,5.25
2023-03-18T15:32:20.978Z,5.03
2023-03-18T15:34:56.857Z,4.60
2023-03-18T15:37:41.363Z,5.37
2023-03-18T15:40:33.412Z,5.20
2023-03-18T15:43:18.344Z,6.53
2023-03-18T15:45:54.450Z,6.33
2023-03-18T15:48:29.806Z,6.28
2023-03-18T15:51:04.548Z,6.30
2023-03-18T15:53:43.294Z,6.28
2023-03-18T15:56:18.667Z,5.67
2023-03-18T15:58:58.601Z,7.12
2023-03-18T16:01:31.464Z,6.78
2023-03-18T16:04:04.365Z,6.30
2023-03-18T16:06:39.211Z,6.55
2023-03-18T16:09:19.901Z,6.50
2023-03-18T16:11:54.041Z,5.72
2023-03-18T16:14:28.798Z,6.30
2023-03-18T16:17:02.197Z,7.08
2023-03-18T16:19:34.769Z,6.60
2023-03-18T16:22:07.345Z,5.80
2023-03-18T16:24:41.971Z,6.58
2023-03-18T16:27:22.545Z,6.35
2023-03-18T16:29:55.979Z,6.28
2023-03-18T16:32:29.045Z,5.87
2023-03-18T16:35:01.897Z,6.95
2023-03-18T16:37:34.149Z,8.00
2023-03-18T16:42:38.340Z,8.45
2023-03-18T16:45:14.864Z,8.23
2023-03-18T16:47:48.252Z,7.17
2023-03-18T16:50:22.550Z,7.45
2023-03-18T16:52:55.252Z,6.72
2023-03-18T16:55:28.436Z,6.87
2023-03-18T16:58:02.238Z,7.58
2023-03-18T17:00:34.566Z,8.00
2023-03-18T17:03:07.255Z,8.40
2023-03-18T17:05:39.974Z,8.40
2023-03-18T17:08:12.982Z,8.03
2023-03-18T17:10:46.349Z,8.80
2023-03-18T17:13:20.568Z,9.05
2023-03-18T17:15:53.752Z,11.15
2023-03-18T17:18:28.177Z,11.07
2023-03-18T17:21:03.821Z,11.18
2023-03-18T17:23:36.400Z,9.65
2023-03-18T17:26:14.702Z,9.28
2023-03-18T17:28:48.797Z,8.75
2023-03-18T17:31:21.723Z,8.68
2023-03-18T17:33:54.968Z,7.95
2023-03-18T17:36:27.949Z,7.95
2023-03-18T17:39:00.445Z,7.60
2023-03-18T17:41:33.227Z,8.25
2023-03-18T17:44:10.717Z,7.97
2023-03-18T17:46:43.511Z,7.78
2023-03-18T17:49:16.285Z,7.83
2023-03-18T17:51:49.468Z,8.45
2023-03-18T17:54:23.885Z,8.35
2023-03-18T17:56:56.462Z,8.85
2023-03-18T17:59:29.252Z,7.95
2023-03-18T18:02:02.056Z,9.08
2023-03-18T18:04:34.807Z,9.25
2023-03-18T18:07:07.376Z,10.78
2023-03-18T18:09:40.368Z,9.43
2023-03-18T18:12:15.968Z,9.60
2023-03-18T18:14:48.587Z,10.50
2023-03-18T18:17:22.181Z,10.18
2023-03-18T18:19:55.166Z,13.60
2023-03-18T18:22:27.643Z,14.30
2023-03-18T18:25:00.728Z,18.42
2023-03-18T18:27:33.713Z,18.23
2023-03-18T18:30:08.446Z,13.60
2023-03-18T18:32:41.571Z,9.58
2023-03-18T18:35:17.452Z,9.83
2023-03-18T18:37:50.250Z,10.35
2023-03-18T18:40:22.777Z,10.32
2023-03-18T18:42:58.179Z,9.48
2023-03-18T18:45:32.033Z,10.63
2023-03-18T18:48:11.540Z,10.53
2023-03-18T18:50:45.338Z,10.65
2023-03-18T18:53:20.461Z,10.65
2023-03-18T18:55:54.401Z,11.35
2023-03-18T18:58:29.012Z,11.53
2023-03-18T19:01:01.534Z,12.37
2023-03-18T19:03:34.408Z,13.40
2023-03-18T19:06:07.538Z,12.53
2023-03-18T19:08:40.361Z,12.57
2023-03-18T19:11:13.729Z,12.47
2023-03-18T19:13:46.590Z,11.50
2023-03-18T19:16:22.392Z,13.68
2023-03-18T19:18:55.816Z,12.33
2023-03-18T19:21:28.825Z,13.75
2023-03-18T19:24:01.511Z,14.20
2023-03-18T19:26:34.296Z,14.18
2023-03-18T19:29:07.479Z,13.55
2023-03-18T19:31:40.283Z,12.88
2023-03-18T19:34:16.727Z,12.82
2023-03-18T19:36:49.915Z,11.48
2023-03-18T19:39:23.511Z,11.05
2023-03-18T19:41:56.289Z,12.53
2023-03-18T19:44:29.280Z,11.78
2023-03-18T19:47:01.875Z,12.20
2023-03-18T19:49:37.162Z,13.03
2023-03-18T19:52:18.112Z,13.18
2023-03-18T19:54:51.665Z,17.73
2023-03-18T19:57:25.748Z,16.60
2023-03-18T19:59:58.780Z,16.62
2023-03-18T20:02:32.518Z,19.73
2023-03-18T20:05:16.093Z,18.37
2023-03-18T20:07:50.768Z,17.27
2023-03-18T20:10:23.907Z,17.97
2023-03-18T20:12:56.693Z,17.42
2023-03-18T20:15:29.884Z,18.10
2023-03-18T20:18:02.466Z,18.98
2023-03-18T20:20:35.645Z,19.43
2023-03-18T20:23:09.863Z,19.48
2023-03-18T20:25:46.396Z,18.27
2023-03-18T20:28:19.925Z,18.55
2023-03-18T20:30:54.252Z,19.45
2023-03-18T20:33:26.919Z,19.30
2023-03-18T20:36:00.040Z,19.85
2023-03-18T20:38:34.418Z,19.27
2023-03-18T20:41:06.877Z,19.87
2023-03-18T20:43:39.477Z,19.48
2023-03-18T20:46:13.716Z,19.95
2023-03-18T20:48:46.480Z,18.75
2023-03-18T20:51:22.847Z,17.87
2023-03-18T20:53:55.719Z,17.30
2023-03-18T20:56:32.798Z,18.70
2023-03-18T20:59:05.480Z,16.47
2023-03-18T21:01:38.072Z,16.32
2023-03-18T21:04:13.104Z,16.12
2023-03-18T21:06:45.765Z,15.88
2023-03-18T21:09:18.540Z,16.32
2023-03-18T21:11:51.530Z,19.00
2023-03-18T21:14:24.102Z,22.82
2023-03-18T21:16:57.941Z,23.90
2023-03-18T21:19:30.889Z,20.20
2023-03-18T21:22:03.667Z,18.47
2023-03-18T21:24:36.462Z,16.30
2023-03-18T21:27:15.477Z,16.10
2023-03-18T21:29:48.111Z,14.80
2023-03-18T21:32:24.008Z,14.73
2023-03-18T21:34:57.400Z,13.98
2023-03-18T21:37:30.796Z,12.98
2023-03-18T21:40:03.580Z,13.15
2023-03-18T21:42:37.379Z,12.75
2023-03-18T21:45:13.577Z,11.33
2023-03-18T21:47:46.419Z,11.22
2023-03-18T21:50:24.317Z,12.28
2023-03-18T21:52:56.680Z,10.75
2023-03-18T21:55:29.475Z,11.20
2023-03-18T21:58:02.052Z,10.93
2023-03-18T22:00:34.519Z,11.50
2023-03-18T22:03:13.701Z,10.88
2023-03-18T22:05:48.994Z,11.50
2023-03-18T22:08:22.052Z,11.63
2023-03-18T22:10:54.758Z,12.10
2023-03-18T22:13:28.034Z,11.95
2023-03-18T22:16:01.168Z,12.43
2023-03-18T22:18:33.921Z,11.73
2023-03-18T22:21:14.660Z,12.43
2023-03-18T22:23:48.936Z,13.10
2023-03-18T22:26:23.231Z,12.57
2023-03-18T22:28:57.225Z,12.37
2023-03-18T22:31:32.046Z,13.30
2023-03-18T22:34:09.536Z,13.53
2023-03-18T22:36:43.334Z,13.00
2023-03-18T22:39:17.472Z,13.67
2023-03-18T22:41:51.033Z,13.50
2023-03-18T22:44:26.501Z,12.20
2023-03-18T22:47:00.301Z,12.93
2023-03-18T22:49:34.110Z,12.40
2023-03-18T22:52:10.038Z,14.17
2023-03-18T22:54:44.181Z,13.33
2023-03-18T22:57:21.411Z,14.80
2023-03-18T22:59:55.676Z,14.83
2023-03-18T23:02:31.274Z,14.90
2023-03-18T23:05:05.137Z,14.67
2023-03-18T23:07:39.177Z,15.20
2023-03-18T23:10:15.542Z,14.93
2023-03-18T23:12:49.930Z,14.90
2023-03-18T23:15:24.720Z,15.20
2023-03-18T23:17:59.066Z,14.97
2023-03-18T23:20:33.205Z,15.27
2023-03-18T23:23:06.762Z,15.57
2023-03-18T23:25:40.884Z,14.80
2023-03-18T23:28:14.583Z,14.60
2023-03-18T23:30:51.519Z,15.03
2023-03-18T23:33:25.435Z,14.57
2023-03-18T23:35:59.263Z,14.33
2023-03-18T23:38:32.775Z,14.67
2023-03-18T23:41:07.402Z,14.07
2023-03-18T23:43:41.556Z,13.90
2023-03-18T23:46:15.693Z,14.30
2023-03-18T23:48:49.457Z,13.83
2023-03-18T23:51:23.636Z,14.17
2023-03-18T23:53:57.646Z,15.57
2023-03-18T23:56:31.373Z,15.40
2023-03-18T23:59:06.293Z,15.87
